< < Back
Terminal Aerodrome Forecast


Current Version              Previous Versions:   1  2  3  4  5  6  7  8  9  

Terminal Aerodrome Forecast

312
FTUS42 KGSP 291700
TAFAVL
TAF
KAVL 291734Z 2918/3018 16007KT P6SM FEW045 SCT070
     FM300500 00000KT 5SM BR FEW050
     FM300900 00000KT 1/2SM FG BKN003 BKN050
     FM301300 00000KT P6SM SCT050=



Latest METAR

461
SAUS70 KWBC 300400 RRF
MTRAVL
METAR KAVL 300354Z AUTO 24003KT 10SM CLR 21/19 A3023 RMK AO2 SLP207
T02110189


USA.gov is the U.S. government's official web portal to all federal, state and local government web resources and services.